Gabriele Chiari

Recruteur en chef - Genoa
16 Sept 2027
Jeudi
Processus

Personnalité

Adaptabilité (12) Ambition (6) Controverse (10) Loyauté (10) Pression (2) Professionnalisme (5) Sportivité (5) Tempérament (5)

Profil

Style d'entraînement Démocratique
Diplôme National A
Détermination 11
Gestion des joueurs 11
Motivation 8
Discipline 9
Satisfaction professionnelle
100%
Fatigue
0%
Rôle Recruteur en chef
Salaire 67.1K p/s
Contrat 14.03.2028

Performance

Comportement Bon
Efficacité de l'entraînement
51%
Développement des joueurs
60%
Prévention des blessures
55%
Mise en place tactique
50%

Événements récents

A participé à une réunion de recrutement maintenant
A participé à une réunion de recrutement maintenant
A participé à une réunion de recrutement maintenant
A participé à une réunion de recrutement maintenant
A recommandé une cible de transfert maintenant
A recommandé une cible de transfert maintenant
A participé à une réunion de recrutement maintenant
A évalué un joueur 7j

Suivi en cours

121
Joueur Club Statut Capacité Confiance Observé Dernière observation Dernier vote
Niccolò Fortini Fiorentina Actif 120 / 133 40% 2 15.09.2027 -
Felipe Obradovich Ferro Carril Oeste Actif 112 / 115 40% 1 15.09.2027 -
Mauro Carrizo Atlético Tucumán Actif 104 / 108 40% 1 14.09.2027 -
Teo Rodríguez Pagano River Plate Actif 118 / 120 40% 1 14.09.2027 -
Hervin Goyes Deportivo Pasto Actif 93 / 113 40% 1 12.09.2027 -
David Odogu AC Milan Actif 128 / 128 40% 1 12.09.2027 -
Martín Jiménez Audax Italiano Actif 108 / 111 40% 1 09.09.2027 -
Davide Bartesaghi AC Milan Actif 124 / 146 40% 3 08.09.2027 -
Fillip Jenssen Riise Stabaek Actif 102 / 110 40% 1 08.09.2027 -
Veljko Milosavljević Aston Villa Actif 144 / 142 40% 1 02.09.2027 -
Josh King Chelsea Actif 148 / 151 40% 4 23.08.2027 -
Honest Ahanor Atalanta Actif 133 / 137 40% 1 23.08.2027 -
Leandro Martins Benfica Actif 91 / 98 40% 1 14.07.2027 -
Edoardo Tartaglia Renate Actif 95 / 110 40% 1 14.07.2027 -
Riley Owen Trento Actif 106 / 114 40% 2 09.06.2027 -
Youri Baas Bournemouth Rapport prêt 144 / 147 67% 1 01.06.2027 -
Tobias Slotsager Casertana Actif 122 / 123 40% 1 31.05.2027 -
Kazunari Kita Real Sociedad Actif 108 / 110 40% 2 29.05.2027 -
Juan Giménez Celta Actif 117 / 120 40% 1 28.05.2027 -
Ibrahim Maza Bayer Leverkusen Actif 147 / 147 40% 3 26.05.2027 -
Diego Moreira AC Milan Actif 153 / 143 40% 3 25.05.2027 -
Tiago Freitas Benfica Actif 108 / 113 40% 1 24.05.2027 -
Gonçalo Oliveira Benfica Actif 113 / 119 40% 1 23.05.2027 -
Hlompho Lorch Ajax Cape Town Actif 110 / 105 40% 1 22.05.2027 -
Martim Cunha Porto Actif 100 / 108 40% 1 22.05.2027 -
Samuele di Benedetto Bari Actif 121 / 118 40% 2 21.05.2027 -
Nicolò Zaniolo Udinese Actif 146 / 139 40% 9 19.05.2027 -
Nicolò Cambiaghi Bologna Actif 151 / 144 40% 10 17.05.2027 -
Zakaria Aboukhlal Torino Actif 134 / 130 40% 9 16.05.2027 -
Jofre Torrents Ajax Actif 120 / 124 40% 2 15.05.2027 -
Leonardo Mendicino Bari Actif 112 / 122 40% 2 15.05.2027 -
Borja Sainz Fiorentina Actif 159 / 147 40% 4 13.05.2027 -
Yankuba Minteh Brighton Actif 159 / 157 40% 2 13.05.2027 -
Nadir Zortea Bologna Actif 128 / 144 40% 2 12.05.2027 -
Assane Diao Lazio Actif 139 / 144 40% 3 11.05.2027 -
Antonio Vergara Napoli Actif 138 / 135 40% 4 11.05.2027 -
Adam Bakoune Ospitaletto Actif 93 / 96 40% 1 11.05.2027 -
Unai Gómez Udinese Actif 140 / 138 40% 2 10.05.2027 -
Gustav Isaksen Lazio Actif 134 / 149 40% 4 07.05.2027 -
Rodrigo Mora AS Roma Actif 123 / 137 40% 1 03.05.2027 -
Matvey Kislyak CSKA Moscow Actif 137 / 142 40% 1 03.05.2027 -
Finn Jeltsch VfB Stuttgart Actif 124 / 145 40% 1 03.05.2027 -
Raoul Bellanova Atalanta Actif 160 / 153 40% 5 30.04.2027 Observer
Giacomo Raspadori Atalanta Actif 160 / 146 40% 9 27.04.2027 -
Cristian Shpendi Cesena Actif 132 / 129 40% 1 27.04.2027 -
Josh Doig Sassuolo Actif 138 / 135 40% 3 26.04.2027 -
Jayden Addai Como Actif 147 / 142 40% 3 26.04.2027 -
Lucas Da Cunha Como Actif 152 / 149 40% 4 24.04.2027 -
Romano Schmid Frosinone Actif 155 / 149 67% 7 20.04.2027 -
Cher Ndour Fiorentina Actif 121 / 142 40% 5 19.04.2027 -
Tommaso Pobega Bologna Actif 147 / 134 40% 1 19.04.2027 -
Andrea Colpani Monza Actif 127 / 128 40% 3 18.04.2027 -
Nuno Tavares Lazio Actif 161 / 143 40% 7 17.04.2027 -
Juan Rodríguez Cagliari Actif 123 / 125 40% 1 06.04.2027 -
Sascha Britschgi Padova Actif 108 / 133 40% 1 06.04.2027 -
Manu Koné AS Roma Actif 170 / 156 40% 3 03.04.2027 -
Jordan Zemura Udinese Actif 136 / 129 40% 3 31.03.2027 -
Jesús Rodríguez Como Actif 151 / 147 40% 4 29.03.2027 -
Jens Odgaard Bologna Actif 129 / 135 40% 5 22.03.2027 -
Marcelo Allende Mamelodi Sundowns Actif 127 / 135 40% 3 16.03.2027 -
Matías Soulé AS Roma Actif 163 / 153 40% 6 07.03.2027 Observer
Lewis Ferguson Bologna Actif 142 / 142 40% 2 05.03.2027 -
Luís Henrique Inter Actif 154 / 143 40% 3 24.02.2027 -
Alessio Zerbin Frosinone Actif 125 / 128 40% 2 22.02.2027 -
Petar Stanić Ludogorets Actif 145 / 138 40% 1 07.02.2027 -
Vangelis Pavlidis Twente Actif 152 / 152 90% 1 01.01.2027 -
Roberto Alvarado Monaco Actif 139 / 139 66% 1 01.01.2027 -
Mohamed Belloumi Hull City Actif 133 / 134 67% 1 01.01.2027 Approuver
Rodrigo Zalazar Sporting CP Actif 148 / 148 67% 1 01.01.2027 Approuver
Amin Sarr Hellas Verona Actif 136 / 128 48% 4 31.12.2026 -
Kwame Opoku Asante Kotoko Actif 116 / 97 40% 2 29.12.2026 -
John Yeboah Venezia Actif 133 / 114 40% 1 29.12.2026 -
Mandla Mahlangu Ajax Cape Town Actif 122 / 106 40% 2 26.12.2026 -
Yoan Bonny Inter Actif 131 / 150 40% 2 25.12.2026 -
Ruben van Bommel Ferencvaros Actif 129 / 139 40% 3 25.12.2026 -
Bernat Guiu Virtus Entella Actif 104 / 118 40% 1 24.12.2026 -
Matteo Rover Reggiana Actif 130 / 113 40% 1 22.12.2026 -
Konan N'Dri Lecce Actif 125 / 121 40% 1 22.12.2026 -
Esequiel Barco Spartak Moscow Actif 150 / 134 40% 1 22.12.2026 -
Alessandro Buongiorno Sassuolo Actif 157 / 161 40% 1 22.12.2026 -
Mattia Felici Cagliari Actif 133 / 129 40% 3 18.12.2026 -
Santiago Pierotti Lecce Actif 142 / 126 40% 1 15.12.2026 -
Luciano Gondou CSKA Moscow Actif 130 / 130 40% 1 15.12.2026 -
Everton Bala Levski Actif 139 / 131 40% 1 13.12.2026 -
David Romero Parma Actif 127 / 131 40% 1 12.12.2026 -
Evidence Makgopa Orlando Pirates Actif 121 / 112 40% 1 11.12.2026 -
Gonçalo Ramos AC Milan Actif 157 / 154 40% 3 10.12.2026 Observer
Stiven Shpendi Empoli Actif 117 / 121 40% 1 10.12.2026 -
Alexis Saelemaekers AC Milan Actif 140 / 152 40% 1 05.12.2026 -
Donyell Malen AS Roma Actif 140 / 144 40% 1 05.12.2026 -
Jhon Jhon Zenit Actif 121 / 136 40% 1 04.12.2026 -
Juan Miranda Bologna Actif 130 / 137 40% 1 28.11.2026 -
Brayan León Mamelodi Sundowns Actif 120 / 110 40% 1 27.11.2026 -
Marquinhos Spartak Moscow Actif 147 / 119 40% 1 22.11.2026 -
Manfred Ugalde Spartak Moscow Actif 143 / 125 40% 1 19.11.2026 -
Yan Diomandé Real Madrid Actif 154 / 159 40% 2 18.11.2026 -
Nicolás Cordero Aldosivi Actif 107 / 113 40% 1 17.11.2026 -
Bamba Dieng Crvena Zvezda Actif 111 / 135 40% 2 15.11.2026 -
Andrea Pinamonti Lazio Actif 150 / 141 40% 1 12.11.2026 -
Lassina Traoré Shakhtar Actif 137 / 124 40% 1 09.11.2026 -
Giorgio Scalvini Atalanta Actif 149 / 158 40% 1 09.11.2026 Plus d'infos
Isak Hien Atalanta Actif 142 / 142 40% 1 09.11.2026 -
Christian Krasnodar Actif 129 / 132 40% 1 04.11.2026 -
Agustín Módica Gimnasia y Esgrima Actif 127 / 127 40% 1 01.11.2026 -
Alan Lescano Argentinos Juniors Actif 143 / 135 40% 1 28.10.2026 -
Themba Ngcobo SuperSport United Actif 106 / 111 40% 1 26.10.2026 -
Jacob Ramsey Newcastle United Actif 139 / 149 40% 1 23.10.2026 -
Jadon Sancho Manchester United Actif 143 / 142 40% 1 23.10.2026 -
Bénie Traoré New York City Actif 143 / 117 40% 1 23.10.2026 -
Kein Sato FC Tokyo Actif 124 / 137 40% 1 21.10.2026 -
Marezi Portsmouth Actif 107 / 117 40% 1 21.10.2026 -
Iliman N'Diaye Everton Actif 155 / 160 40% 1 19.10.2026 -
Yousef Salech Cardiff City Actif 110 / 129 40% 1 18.10.2026 -
Kévin Denkey FC Cincinnati Actif 114 / 118 40% 2 17.10.2026 -
Gabriel Martinelli Brighton Actif 172 / 165 40% 1 17.10.2026 -
Dejan Joveljić Seattle Sounders Actif 124 / 129 40% 1 14.10.2026 -
Alexis Cuello San Lorenzo Actif 114 / 127 40% 1 13.10.2026 -
Kenan Yıldız Juventus Actif 156 / 163 40% 1 10.10.2026 -
Will Lankshear Middlesbrough Actif 119 / 122 40% 1 09.10.2026 -
Dango Ouattara Brentford Actif 141 / 139 40% 1 05.10.2026 -
Noah Sadiki Sunderland Actif 153 / 143 40% 1 02.08.2026 -